createdAt,value
2024-05-09T00:01:58.115Z,100814.78
2024-05-09T00:04:28.013Z,100813.88
2024-05-09T00:06:57.847Z,100813.91
2024-05-09T00:09:30.227Z,100810.47
2024-05-09T00:12:00.283Z,100807.88
2024-05-09T00:14:30.357Z,100807.03
2024-05-09T00:17:00.323Z,100807.84
2024-05-09T00:19:30.346Z,100803.53
2024-05-09T00:22:00.205Z,100808.69
2024-05-09T00:24:32.749Z,100805.25
2024-05-09T00:27:02.565Z,100803.53
2024-05-09T00:29:32.479Z,100801.81
2024-05-09T00:32:02.449Z,100803.53
2024-05-09T00:34:32.433Z,100801.78
2024-05-09T00:37:02.496Z,100806.06
2024-05-09T00:39:35.100Z,100809.50
2024-05-09T00:42:04.911Z,100806.97
2024-05-09T00:44:34.820Z,100804.38
2024-05-09T00:47:05.207Z,100806.97
2024-05-09T00:49:36.242Z,100814.69
2024-05-09T00:52:06.792Z,100806.06
2024-05-09T00:54:39.417Z,100808.63
2024-05-09T00:57:09.241Z,100806.91
2024-05-09T00:59:39.137Z,100806.94
2024-05-09T01:02:09.502Z,100810.38
2024-05-09T01:04:39.468Z,100807.81
2024-05-09T01:07:09.720Z,100800.03
2024-05-09T01:09:42.506Z,100808.66
2024-05-09T01:12:12.451Z,100807.81
2024-05-09T01:14:42.339Z,100806.91
2024-05-09T01:17:12.474Z,100807.78
2024-05-09T01:19:42.694Z,100806.94
2024-05-09T01:22:12.751Z,100809.47
2024-05-09T01:24:45.174Z,100809.47
2024-05-09T01:27:15.029Z,100811.19
2024-05-09T01:29:44.887Z,100809.50
2024-05-09T01:32:14.852Z,100806.03
2024-05-09T01:34:44.846Z,100815.47
2024-05-09T01:37:15.766Z,100808.56
2024-05-09T01:39:48.199Z,100809.44
2024-05-09T01:42:18.729Z,100804.28
2024-05-09T01:44:48.585Z,100809.41
2024-05-09T01:47:18.488Z,100804.25
2024-05-09T01:49:48.410Z,100799.13
2024-05-09T01:52:18.225Z,100806.88
2024-05-09T01:54:50.669Z,100800.00
2024-05-09T01:57:20.579Z,100809.44
2024-05-09T01:59:50.434Z,100806.84
2024-05-09T02:02:20.393Z,100806.88
2024-05-09T02:04:50.463Z,100801.69
2024-05-09T02:07:20.743Z,100802.53
2024-05-09T02:09:54.388Z,100809.41
2024-05-09T02:12:24.280Z,100806.84
2024-05-09T02:14:54.661Z,100805.97
2024-05-09T02:17:24.603Z,100802.53
2024-05-09T02:19:54.555Z,100805.06
2024-05-09T02:22:24.391Z,100804.19
2024-05-09T02:24:56.933Z,100804.16
2024-05-09T02:27:26.764Z,100802.44
2024-05-09T02:29:56.794Z,100802.44
2024-05-09T02:32:26.716Z,100805.00
2024-05-09T02:34:56.744Z,100803.28
2024-05-09T02:37:23.988Z,100797.28
2024-05-09T02:39:56.661Z,100803.25
2024-05-09T02:42:23.879Z,100804.13
2024-05-09T02:44:53.686Z,100798.94
2024-05-09T02:47:21.037Z,100800.63
2024-05-09T02:49:51.024Z,100800.66
2024-05-09T02:52:18.927Z,100800.69
2024-05-09T02:54:48.772Z,100798.06
2024-05-09T02:57:18.568Z,100801.50
2024-05-09T02:59:48.409Z,100792.94
2024-05-09T03:02:15.679Z,100795.50
2024-05-09T03:04:45.806Z,100803.22
2024-05-09T03:07:13.095Z,100802.34
2024-05-09T03:09:42.899Z,100799.75
2024-05-09T03:12:10.282Z,100802.34
2024-05-09T03:14:42.850Z,100797.19
2024-05-09T03:17:10.129Z,100801.50
2024-05-09T03:19:40.129Z,100799.75
2024-05-09T03:22:07.316Z,100798.91
2024-05-09T03:24:37.224Z,100803.16
2024-05-09T03:27:04.685Z,100799.75
2024-05-09T03:29:34.570Z,100795.44
2024-05-09T03:32:05.277Z,100803.16
2024-05-09T03:34:35.147Z,100803.16
2024-05-09T03:37:05.040Z,100803.16
2024-05-09T03:39:34.890Z,100810.91
2024-05-09T03:42:04.619Z,100800.59
2024-05-09T03:44:34.456Z,100807.44
2024-05-09T03:47:07.324Z,100807.44
2024-05-09T03:49:34.674Z,100810.88
2024-05-09T03:52:05.463Z,100815.19
2024-05-09T03:54:34.761Z,100808.31
2024-05-09T03:57:04.615Z,100807.44
2024-05-09T03:59:31.844Z,100805.75
2024-05-09T04:02:01.672Z,100808.34
2024-05-09T04:04:31.567Z,100811.78
2024-05-09T04:07:01.513Z,100813.50
2024-05-09T04:09:28.804Z,100817.84
2024-05-09T04:11:58.706Z,100826.44
2024-05-09T04:14:26.115Z,100825.56
2024-05-09T04:16:56.039Z,100826.41
2024-05-09T04:19:23.384Z,100834.16
2024-05-09T04:21:55.873Z,100831.56
2024-05-09T04:24:23.117Z,100827.25
2024-05-09T04:26:52.863Z,100823.81
2024-05-09T04:29:20.118Z,100833.25
2024-05-09T04:31:49.941Z,100834.13
2024-05-09T04:34:17.287Z,100841.88
2024-05-09T04:36:47.212Z,100841.91
2024-05-09T04:39:16.970Z,100847.06
2024-05-09T04:41:47.048Z,100839.28
2024-05-09T04:44:14.243Z,100847.91
2024-05-09T04:46:44.093Z,100841.91
2024-05-09T04:49:11.387Z,100848.78
2024-05-09T04:51:41.311Z,100846.19
2024-05-09T04:54:10.832Z,100844.50
2024-05-09T04:56:48.217Z,100852.22
2024-05-09T04:59:15.452Z,100852.25
2024-05-09T05:01:45.415Z,100862.56
2024-05-09T05:04:13.666Z,100859.97
2024-05-09T05:06:43.466Z,100853.94
2024-05-09T05:09:10.739Z,100854.81
2024-05-09T05:11:40.577Z,100861.66
2024-05-09T05:14:10.623Z,100863.41
2024-05-09T05:16:40.426Z,100864.25
2024-05-09T05:19:11.473Z,100861.69
2024-05-09T05:21:42.598Z,100870.31
2024-05-09T05:24:09.779Z,100871.22
2024-05-09T05:26:40.184Z,100872.09
2024-05-09T05:29:10.095Z,100871.25
2024-05-09T05:31:40.043Z,100866.97
2024-05-09T05:34:07.437Z,100871.28
2024-05-09T05:36:37.242Z,100874.72
2024-05-09T05:39:04.488Z,100869.56
2024-05-09T05:41:34.347Z,100882.47
2024-05-09T05:44:01.749Z,100882.50
2024-05-09T05:46:34.146Z,100878.22
2024-05-09T05:49:01.482Z,100881.69
2024-05-09T05:51:31.359Z,100888.59
2024-05-09T05:53:58.631Z,100883.41
2024-05-09T05:56:29.044Z,100890.31
2024-05-09T05:58:56.278Z,100886.91
2024-05-09T06:01:26.183Z,100891.22
2024-05-09T06:03:56.227Z,100889.56
2024-05-09T06:06:26.043Z,100886.97
2024-05-09T06:08:53.347Z,100886.97
2024-05-09T06:11:23.370Z,100888.72
2024-05-09T06:13:50.751Z,100893.88
2024-05-09T06:16:20.535Z,100899.00
2024-05-09T06:18:47.768Z,100907.63
2024-05-09T06:21:22.147Z,100906.78
2024-05-09T06:23:50.083Z,100904.22
2024-05-09T06:26:20.045Z,100905.97
2024-05-09T06:28:47.272Z,100904.28
2024-05-09T06:31:17.175Z,100909.44
2024-05-09T06:33:44.547Z,100912.06
2024-05-09T06:36:14.857Z,100908.63
2024-05-09T06:38:44.762Z,100912.94
2024-05-09T06:41:14.637Z,100911.22
2024-05-09T06:43:42.313Z,100924.13
2024-05-09T06:46:12.317Z,100910.34
2024-05-09T06:48:39.757Z,100920.66
2024-05-09T06:51:09.762Z,100926.69
2024-05-09T06:53:39.439Z,100933.63
2024-05-09T06:56:13.474Z,100928.47
2024-05-09T06:58:40.688Z,100922.47
2024-05-09T07:01:10.441Z,100924.22
2024-05-09T07:03:37.825Z,100925.09
2024-05-09T07:06:08.320Z,100924.28
2024-05-09T07:08:35.694Z,100930.38
2024-05-09T07:11:05.809Z,100934.66
2024-05-09T07:13:35.825Z,100927.03
2024-05-09T07:16:05.788Z,100931.38
2024-05-09T07:18:33.086Z,100923.69
2024-05-09T07:21:03.039Z,100925.44
2024-05-09T07:23:30.299Z,100931.56
2024-05-09T07:26:00.551Z,100922.09
2024-05-09T07:28:27.837Z,100928.16
2024-05-09T07:31:00.354Z,100919.56
2024-05-09T07:33:27.742Z,100921.28
2024-05-09T07:35:57.707Z,100922.19
2024-05-09T07:38:24.986Z,100919.63
2024-05-09T07:40:54.811Z,100917.91
2024-05-09T07:43:22.029Z,100918.78
2024-05-09T07:45:54.477Z,100917.06
2024-05-09T07:50:00.069Z,100922.25
2024-05-09T07:53:50.788Z,100922.28
2024-05-09T07:56:24.517Z,100925.72
2024-05-09T07:58:53.806Z,100924.84
2024-05-09T08:01:25.810Z,100923.16
2024-05-09T08:03:56.260Z,100926.63
2024-05-09T08:06:26.822Z,100925.81
2024-05-09T08:08:54.226Z,100930.13
2024-05-09T08:11:24.301Z,100924.03
2024-05-09T08:13:51.700Z,100931.81
2024-05-09T08:16:21.725Z,100929.25
2024-05-09T08:18:49.158Z,100924.06
2024-05-09T08:21:21.787Z,100920.63
2024-05-09T08:23:48.985Z,100928.41
2024-05-09T08:26:18.804Z,100921.50
2024-05-09T08:28:46.060Z,100917.19
2024-05-09T08:31:16.042Z,100928.41
2024-05-09T08:33:47.256Z,100924.09
2024-05-09T08:36:17.841Z,100929.28
2024-05-09T08:38:50.329Z,100925.81
2024-05-09T08:41:17.569Z,100918.91
2024-05-09T08:43:47.885Z,100924.09
2024-05-09T08:46:15.829Z,100920.59
2024-05-09T08:48:48.179Z,100924.09
2024-05-09T08:51:15.631Z,100926.69
2024-05-09T08:53:45.505Z,100931.84
2024-05-09T08:56:17.367Z,100925.81
2024-05-09T08:58:48.247Z,100920.59
2024-05-09T09:01:18.351Z,100914.53
2024-05-09T09:03:49.081Z,100920.53
2024-05-09T09:06:19.372Z,100917.91
2024-05-09T09:08:50.277Z,100916.19
2024-05-09T09:11:20.145Z,100915.28
2024-05-09T09:13:49.966Z,100904.03
2024-05-09T09:16:17.450Z,100902.28
2024-05-09T09:18:48.116Z,100905.75
2024-05-09T09:21:15.790Z,100899.63
2024-05-09T09:23:46.483Z,100905.66
2024-05-09T09:26:16.448Z,100893.53
2024-05-09T09:28:49.816Z,100898.72
2024-05-09T09:31:18.387Z,100902.19
2024-05-09T09:33:48.700Z,100904.72
2024-05-09T09:36:18.400Z,100897.78
2024-05-09T09:38:51.074Z,100901.22
2024-05-09T09:41:24.617Z,100909.84
2024-05-09T09:43:59.483Z,100912.38
2024-05-09T09:46:29.276Z,100904.63
2024-05-09T09:48:59.750Z,100914.06
2024-05-09T09:51:27.775Z,100904.59
2024-05-09T09:53:59.246Z,100898.47
2024-05-09T09:56:30.332Z,100904.50
2024-05-09T09:59:07.046Z,100900.16
2024-05-09T10:01:37.235Z,100906.19
2024-05-09T10:04:08.265Z,100906.16
2024-05-09T10:06:41.313Z,100897.47
2024-05-09T10:09:14.314Z,100900.88
2024-05-09T10:11:45.428Z,100899.09
2024-05-09T10:14:25.775Z,100893.00
2024-05-09T10:16:53.009Z,100892.91
2024-05-09T10:19:29.199Z,100884.22
2024-05-09T10:22:03.264Z,100883.31
2024-05-09T10:24:49.316Z,100891.88
2024-05-09T10:27:21.233Z,100888.38
2024-05-09T10:29:55.527Z,100887.47
2024-05-09T10:32:25.553Z,100876.16
2024-05-09T10:35:06.780Z,100874.28
2024-05-09T10:37:37.642Z,100874.22
2024-05-09T10:40:11.923Z,100869.78
2024-05-09T10:42:47.468Z,100863.63
2024-05-09T10:45:18.919Z,100856.59
2024-05-09T10:47:48.837Z,100863.41
2024-05-09T10:50:22.582Z,100854.66
2024-05-09T10:52:58.185Z,100863.31
2024-05-09T10:55:25.570Z,100860.59
2024-05-09T10:57:55.509Z,100857.94
2024-05-09T11:00:35.654Z,100851.00
2024-05-09T11:03:06.702Z,100850.88
2024-05-09T11:05:35.022Z,100860.28
2024-05-09T11:08:05.259Z,100855.72
2024-05-09T11:10:34.369Z,100853.94
2024-05-09T11:13:04.795Z,100846.94
2024-05-09T11:15:41.080Z,100838.81
2024-05-09T11:18:25.295Z,100851.72
2024-05-09T11:20:54.814Z,100845.34
2024-05-09T11:23:26.250Z,100842.78
2024-05-09T11:25:55.007Z,100840.66
2024-05-09T11:28:25.867Z,100834.50
2024-05-09T11:31:06.597Z,100834.69
2024-05-09T11:33:39.775Z,100833.38
2024-05-09T11:36:08.219Z,100827.59
2024-05-09T11:38:38.642Z,100826.13
2024-05-09T11:41:06.722Z,100822.16
2024-05-09T11:43:36.518Z,100819.50
2024-05-09T11:46:06.509Z,100816.97
2024-05-09T11:48:36.705Z,100814.09
2024-05-09T11:51:04.320Z,100814.00
2024-05-09T11:53:34.123Z,100813.25
2024-05-09T11:56:01.404Z,100823.22
2024-05-09T11:58:34.418Z,100820.38
2024-05-09T12:01:02.235Z,100818.97
2024-05-09T12:03:34.997Z,100808.81
2024-05-09T12:06:02.551Z,100803.41
2024-05-09T12:08:32.620Z,100807.31
2024-05-09T12:11:00.043Z,100807.66
2024-05-09T12:13:30.143Z,100801.78
2024-05-09T12:15:57.460Z,100796.50
2024-05-09T12:18:27.349Z,100788.63
2024-05-09T12:20:57.238Z,100795.81
2024-05-09T12:23:27.012Z,100785.97
2024-05-09T12:25:54.280Z,100790.22
2024-05-09T12:28:24.445Z,100792.78
2024-05-09T12:30:52.066Z,100791.97
2024-05-09T12:33:22.558Z,100787.72
2024-05-09T12:35:51.109Z,100782.38
2024-05-09T12:38:24.548Z,100778.34
2024-05-09T12:40:51.865Z,100775.72
2024-05-09T12:43:21.794Z,100781.88
2024-05-09T12:45:49.171Z,100776.09
2024-05-09T12:48:19.418Z,100770.28
2024-05-09T12:50:46.823Z,100765.53
2024-05-09T12:53:16.709Z,100774.22
2024-05-09T12:55:53.636Z,100774.38
2024-05-09T12:58:27.147Z,100769.25
2024-05-09T13:00:54.613Z,100766.06
2024-05-09T13:03:24.607Z,100759.66
2024-05-09T13:05:52.109Z,100762.78
2024-05-09T13:08:22.878Z,100759.19
2024-05-09T13:10:52.869Z,100761.06
2024-05-09T13:13:22.812Z,100758.69
2024-05-09T13:15:50.352Z,100760.53
2024-05-09T13:18:20.368Z,100758.97
2024-05-09T13:20:47.612Z,100750.56
2024-05-09T13:23:17.460Z,100750.56
2024-05-09T13:25:44.706Z,100743.91
2024-05-09T13:28:17.375Z,100748.44
2024-05-09T13:30:44.760Z,100749.41
2024-05-09T13:33:15.561Z,100742.50
2024-05-09T13:35:47.283Z,100734.69
2024-05-09T13:38:21.349Z,100731.19
2024-05-09T13:40:50.020Z,100734.84
2024-05-09T13:43:24.065Z,100734.06
2024-05-09T13:45:52.195Z,100726.22
2024-05-09T13:48:22.299Z,100727.94
2024-05-09T13:50:49.623Z,100726.47
2024-05-09T13:53:19.567Z,100718.34
2024-05-09T13:55:46.813Z,100715.78
2024-05-09T13:58:16.889Z,100721.78
2024-05-09T14:00:48.974Z,100711.41
2024-05-09T14:03:20.815Z,100710.00
2024-05-09T14:05:50.133Z,100713.47
2024-05-09T14:08:22.570Z,100717.47
2024-05-09T14:10:58.039Z,100715.78
2024-05-09T14:13:28.003Z,100715.97
2024-05-09T14:15:58.072Z,100707.25
2024-05-09T14:18:28.099Z,100711.53
2024-05-09T14:20:55.442Z,100715.13
2024-05-09T14:23:25.543Z,100712.59
2024-05-09T14:25:53.568Z,100707.25
2024-05-09T14:28:26.268Z,100705.31
2024-05-09T14:30:53.626Z,100714.78
2024-05-09T14:33:27.118Z,100716.66
2024-05-09T14:35:54.264Z,100709.63
2024-05-09T14:38:24.149Z,100710.53
2024-05-09T14:40:51.583Z,100695.75
2024-05-09T14:43:22.259Z,100702.84
2024-05-09T14:45:49.548Z,100701.91
2024-05-09T14:48:20.091Z,100700.84
2024-05-09T14:50:50.339Z,100698.97
2024-05-09T14:53:20.297Z,100693.94
2024-05-09T14:55:49.492Z,100689.63
2024-05-09T14:58:19.975Z,100689.78
2024-05-09T15:00:50.362Z,100692.38
2024-05-09T15:03:22.307Z,100690.56
2024-05-09T15:05:53.083Z,100692.06
2024-05-09T15:08:23.371Z,100686.97
2024-05-09T15:10:50.973Z,100686.03
2024-05-09T15:13:21.360Z,100683.66
2024-05-09T15:15:49.147Z,100688.13
2024-05-09T15:18:19.429Z,100678.75
2024-05-09T15:20:47.026Z,100684.03
2024-05-09T15:23:19.767Z,100683.19
2024-05-09T15:25:47.120Z,100670.25
2024-05-09T15:28:17.181Z,100675.38
2024-05-09T15:30:46.541Z,100668.63
2024-05-09T15:33:17.207Z,100671.16
2024-05-09T15:35:46.771Z,100668.44
2024-05-09T15:38:20.188Z,100672.00
2024-05-09T15:40:47.542Z,100660.13
2024-05-09T15:43:17.747Z,100670.09
2024-05-09T15:45:45.404Z,100676.28
2024-05-09T15:48:15.373Z,100670.28
2024-05-09T15:50:43.274Z,100671.34
2024-05-09T15:53:14.124Z,100674.97
2024-05-09T15:55:43.999Z,100666.44
2024-05-09T15:58:13.931Z,100669.00
2024-05-09T16:00:43.712Z,100672.44
2024-05-09T16:03:15.937Z,100670.19
2024-05-09T16:05:44.732Z,100672.16
2024-05-09T16:08:15.620Z,100678.41
2024-05-09T16:10:47.285Z,100673.28
2024-05-09T16:13:19.817Z,100670.69
2024-05-09T16:15:47.554Z,100677.59
2024-05-09T16:18:17.792Z,100675.06
2024-05-09T16:20:48.246Z,100676.09
2024-05-09T16:23:19.876Z,100673.63
2024-05-09T16:25:51.641Z,100678.06
2024-05-09T16:28:23.037Z,100673.81
2024-05-09T16:30:51.860Z,100676.41
2024-05-09T16:33:23.960Z,100666.88
2024-05-09T16:35:51.497Z,100675.56
2024-05-09T16:38:21.411Z,100680.84
2024-05-09T16:40:51.334Z,100677.31
2024-05-09T16:43:22.174Z,100679.16
2024-05-09T16:45:49.706Z,100681.94
2024-05-09T16:48:19.952Z,100676.84
2024-05-09T16:50:47.247Z,100683.00
2024-05-09T16:53:17.016Z,100684.75
2024-05-09T16:55:44.258Z,100677.84
2024-05-09T16:58:16.913Z,100684.88
2024-05-09T17:00:44.649Z,100682.34
2024-05-09T17:03:16.803Z,100681.47
2024-05-09T17:05:46.632Z,100682.34
2024-05-09T17:08:20.010Z,100675.47
2024-05-09T17:10:49.341Z,100680.78
2024-05-09T17:13:22.790Z,100679.84
2024-05-09T17:15:52.995Z,100685.91
2024-05-09T17:18:25.484Z,100689.50
2024-05-09T17:20:55.404Z,100689.56
2024-05-09T17:23:22.658Z,100692.25
2024-05-09T17:25:52.600Z,100688.88
2024-05-09T17:28:22.573Z,100695.91
2024-05-09T17:30:52.570Z,100687.22
2024-05-09T17:33:19.921Z,100692.53
2024-05-09T17:35:50.830Z,100690.88
2024-05-09T17:38:18.952Z,100690.09
2024-05-09T17:40:48.775Z,100691.91
2024-05-09T17:43:16.079Z,100691.06
2024-05-09T17:45:48.731Z,100696.34
2024-05-09T17:48:17.429Z,100691.22
2024-05-09T17:50:47.250Z,100692.19
2024-05-09T17:53:14.433Z,100696.63
2024-05-09T17:55:44.360Z,100713.25
2024-05-09T17:58:13.004Z,100707.25
2024-05-09T18:00:43.077Z,100712.47
2024-05-09T18:03:13.934Z,100710.75
2024-05-09T18:05:45.492Z,100708.22
2024-05-09T18:08:13.532Z,100715.16
2024-05-09T18:10:44.433Z,100715.28
2024-05-09T18:13:12.766Z,100723.25
2024-05-09T18:15:43.062Z,100730.25
2024-05-09T18:18:13.618Z,100734.69
2024-05-09T18:20:45.897Z,100732.19
2024-05-09T18:23:16.142Z,100732.31
2024-05-09T18:25:48.543Z,100728.00
2024-05-09T18:28:17.328Z,100732.38
2024-05-09T18:30:48.047Z,100735.09
2024-05-09T18:33:18.359Z,100741.25
2024-05-09T18:35:48.926Z,100742.22
2024-05-09T18:38:16.270Z,100744.13
2024-05-09T18:40:49.270Z,100748.47
2024-05-09T18:43:25.941Z,100747.63
2024-05-09T18:46:02.899Z,100752.00
2024-05-09T18:48:35.088Z,100759.06
2024-05-09T18:51:06.395Z,100771.34
2024-05-09T18:53:34.195Z,100765.47
2024-05-09T18:56:04.140Z,100769.06
2024-05-09T18:58:32.186Z,100771.75
2024-05-09T19:01:03.430Z,100778.78
2024-05-09T19:03:34.558Z,100780.59
2024-05-09T19:06:05.963Z,100785.81
2024-05-09T19:08:34.400Z,100786.75
2024-05-09T19:11:05.387Z,100785.00
2024-05-09T19:13:34.097Z,100789.41
2024-05-09T19:16:05.611Z,100792.16
2024-05-09T19:18:39.193Z,100796.59
2024-05-09T19:21:07.619Z,100801.81
2024-05-09T19:23:44.312Z,100805.28
2024-05-09T19:26:18.955Z,100810.50
2024-05-09T19:28:50.764Z,100809.69
2024-05-09T19:31:19.967Z,100811.47
2024-05-09T19:33:54.393Z,100808.00
2024-05-09T19:36:23.535Z,100817.56
2024-05-09T19:38:55.340Z,100823.66
2024-05-09T19:41:23.744Z,100823.69
2024-05-09T19:43:54.594Z,100828.03
2024-05-09T19:46:24.317Z,100826.34
2024-05-09T19:48:59.309Z,100826.31
2024-05-09T19:51:27.903Z,100829.84
2024-05-09T19:53:59.488Z,100831.59
2024-05-09T19:56:30.546Z,100831.63
2024-05-09T19:59:03.590Z,100842.88
2024-05-09T20:01:31.435Z,100842.00
2024-05-09T20:04:05.299Z,100837.72
2024-05-09T20:06:33.368Z,100843.75
2024-05-09T20:09:06.493Z,100843.78
2024-05-09T20:11:34.700Z,100840.31
2024-05-09T20:14:06.134Z,100855.00
2024-05-09T20:16:35.203Z,100855.00
2024-05-09T20:19:09.299Z,100853.28
2024-05-09T20:21:42.845Z,100859.34
2024-05-09T20:24:18.416Z,100855.03
2024-05-09T20:26:47.080Z,100861.06
2024-05-09T20:29:18.766Z,100862.78
2024-05-09T20:31:48.230Z,100862.81
2024-05-09T20:34:22.445Z,100860.22
2024-05-09T20:36:50.960Z,100871.44
2024-05-09T20:39:32.277Z,100871.44
2024-05-09T20:42:03.794Z,100870.56
2024-05-09T20:44:34.966Z,100877.47
2024-05-09T20:47:02.617Z,100880.03
2024-05-09T20:49:35.660Z,100876.53
2024-05-09T20:52:03.005Z,100878.25
2024-05-09T20:54:33.003Z,100873.94
2024-05-09T20:57:00.218Z,100877.41
2024-05-09T20:59:30.243Z,100883.44
2024-05-09T21:01:57.475Z,100885.16
2024-05-09T21:04:27.595Z,100884.31
2024-05-09T21:06:57.517Z,100885.97
2024-05-09T21:09:28.028Z,100886.81
2024-05-09T21:11:55.290Z,100884.16
2024-05-09T21:14:25.219Z,100895.38
2024-05-09T21:16:52.811Z,100888.53
2024-05-09T21:19:22.774Z,100888.50
2024-05-09T21:21:50.583Z,100895.31
2024-05-09T21:24:23.688Z,100892.72
2024-05-09T21:26:50.898Z,100900.41
2024-05-09T21:29:20.649Z,100900.44
2024-05-09T21:31:47.824Z,100893.59
2024-05-09T21:34:17.697Z,100894.34
2024-05-09T21:36:45.038Z,100902.91
2024-05-09T21:39:14.918Z,100901.25
2024-05-09T21:41:44.705Z,100901.19
2024-05-09T21:44:14.454Z,100912.31
2024-05-09T21:46:41.704Z,100908.84
2024-05-09T21:49:11.617Z,100908.78
2024-05-09T21:51:38.998Z,100906.13
2024-05-09T21:54:08.917Z,100909.56
2024-05-09T21:56:36.087Z,100912.16
2024-05-09T21:59:08.485Z,100914.72
2024-05-09T22:01:36.090Z,100913.78
2024-05-09T22:04:06.126Z,100907.69
2024-05-09T22:06:33.588Z,100912.88
2024-05-09T22:09:05.313Z,100920.56
2024-05-09T22:11:32.787Z,100919.75
2024-05-09T22:14:02.561Z,100918.81
2024-05-09T22:16:32.378Z,100911.91
2024-05-09T22:19:02.295Z,100917.03
2024-05-09T22:21:29.535Z,100916.97
2024-05-09T22:23:59.434Z,100923.00
2024-05-09T22:26:26.732Z,100924.72
2024-05-09T22:28:56.495Z,100934.06
2024-05-09T22:31:23.894Z,100923.75
2024-05-09T22:33:56.710Z,100927.97
2024-05-09T22:36:24.694Z,100929.66
2024-05-09T22:38:54.496Z,100931.44
2024-05-09T22:41:21.721Z,100936.41
2024-05-09T22:43:51.451Z,100927.72
2024-05-09T22:46:18.646Z,100936.38
2024-05-09T22:48:48.669Z,100931.97
2024-05-09T22:51:18.544Z,100929.28
2024-05-09T22:53:48.384Z,100927.56
2024-05-09T22:56:25.788Z,100938.66
2024-05-09T22:58:55.675Z,100925.81
2024-05-09T23:01:26.323Z,100936.94
2024-05-09T23:03:56.725Z,100943.72
2024-05-09T23:06:26.580Z,100939.34
2024-05-09T23:08:56.358Z,100938.47
2024-05-09T23:11:23.509Z,100940.97
2024-05-09T23:13:53.398Z,100942.66
2024-05-09T23:16:20.714Z,100945.22
2024-05-09T23:18:50.750Z,100947.88
2024-05-09T23:21:18.020Z,100943.47
2024-05-09T23:23:50.403Z,100944.19
2024-05-09T23:26:17.595Z,100953.63
2024-05-09T23:28:47.462Z,100945.84
2024-05-09T23:31:14.761Z,100946.78
2024-05-09T23:33:48.206Z,100949.28
2024-05-09T23:36:15.581Z,100945.81
2024-05-09T23:38:46.227Z,100949.91
2024-05-09T23:41:16.015Z,100950.66
2024-05-09T23:43:45.796Z,100945.31
2024-05-09T23:46:13.691Z,100944.53
2024-05-09T23:48:43.542Z,100943.63
2024-05-09T23:51:10.840Z,100937.56
2024-05-09T23:53:40.636Z,100939.34
2024-05-09T23:56:08.239Z,100939.31
2024-05-09T23:58:40.674Z,100939.09
